sensor_id;sensor_type;location;lat;lon;timestamp;P1;durP1;ratioP1;P2;durP2;ratioP2
39486;SDS011;25173;50.430;18.926;2022-09-17T00:02:28;8.77;;;4.93;;
39486;SDS011;25173;50.430;18.926;2022-09-17T00:05:29;10.13;;;4.95;;
39486;SDS011;25173;50.430;18.926;2022-09-17T00:08:30;6.28;;;4.82;;
39486;SDS011;25173;50.430;18.926;2022-09-17T00:11:32;6.35;;;4.43;;
39486;SDS011;25173;50.430;18.926;2022-09-17T00:14:34;8.35;;;4.50;;
39486;SDS011;25173;50.430;18.926;2022-09-17T00:17:35;8.05;;;3.95;;
39486;SDS011;25173;50.430;18.926;2022-09-17T00:20:39;7.28;;;3.92;;
39486;SDS011;25173;50.430;18.926;2022-09-17T00:23:41;8.82;;;4.05;;
39486;SDS011;25173;50.430;18.926;2022-09-17T00:26:42;7.13;;;3.85;;
39486;SDS011;25173;50.430;18.926;2022-09-17T00:29:43;7.20;;;4.55;;
39486;SDS011;25173;50.430;18.926;2022-09-17T00:32:43;6.40;;;4.47;;
39486;SDS011;25173;50.430;18.926;2022-09-17T00:35:44;5.50;;;4.05;;
39486;SDS011;25173;50.430;18.926;2022-09-17T00:38:57;7.30;;;5.03;;
39486;SDS011;25173;50.430;18.926;2022-09-17T00:41:58;8.95;;;4.68;;
39486;SDS011;25173;50.430;18.926;2022-09-17T00:44:59;7.20;;;4.60;;
39486;SDS011;25173;50.430;18.926;2022-09-17T00:48:01;6.50;;;4.53;;
39486;SDS011;25173;50.430;18.926;2022-09-17T00:51:03;9.55;;;4.80;;
39486;SDS011;25173;50.430;18.926;2022-09-17T00:54:06;4.47;;;3.22;;
39486;SDS011;25173;50.430;18.926;2022-09-17T00:57:09;7.40;;;3.78;;
39486;SDS011;25173;50.430;18.926;2022-09-17T01:00:11;4.65;;;3.15;;
39486;SDS011;25173;50.430;18.926;2022-09-17T01:03:14;6.03;;;3.22;;
39486;SDS011;25173;50.430;18.926;2022-09-17T01:09:52;8.02;;;3.90;;
39486;SDS011;25173;50.430;18.926;2022-09-17T01:16:05;7.53;;;4.18;;
39486;SDS011;25173;50.430;18.926;2022-09-17T01:33:12;5.20;;;4.00;;
39486;SDS011;25173;50.430;18.926;2022-09-17T01:39:47;7.10;;;4.13;;
39486;SDS011;25173;50.430;18.926;2022-09-17T01:43:04;7.60;;;3.60;;
39486;SDS011;25173;50.430;18.926;2022-09-17T01:46:11;9.95;;;3.70;;
39486;SDS011;25173;50.430;18.926;2022-09-17T01:49:19;6.03;;;4.10;;
39486;SDS011;25173;50.430;18.926;2022-09-17T01:52:24;5.40;;;3.88;;
39486;SDS011;25173;50.430;18.926;2022-09-17T01:55:29;7.70;;;3.95;;
39486;SDS011;25173;50.430;18.926;2022-09-17T01:58:34;9.52;;;4.10;;
39486;SDS011;25173;50.430;18.926;2022-09-17T02:01:39;5.28;;;4.05;;
39486;SDS011;25173;50.430;18.926;2022-09-17T02:04:47;5.85;;;3.83;;
39486;SDS011;25173;50.430;18.926;2022-09-17T02:07:52;4.63;;;3.67;;
39486;SDS011;25173;50.430;18.926;2022-09-17T02:10:59;7.25;;;3.75;;
39486;SDS011;25173;50.430;18.926;2022-09-17T02:14:10;9.32;;;3.95;;
39486;SDS011;25173;50.430;18.926;2022-09-17T02:17:36;6.28;;;4.03;;
39486;SDS011;25173;50.430;18.926;2022-09-17T02:23:48;5.95;;;4.55;;
39486;SDS011;25173;50.430;18.926;2022-09-17T02:27:02;7.68;;;5.30;;
39486;SDS011;25173;50.430;18.926;2022-09-17T02:30:13;6.35;;;5.32;;
39486;SDS011;25173;50.430;18.926;2022-09-17T02:33:14;9.48;;;6.10;;
39486;SDS011;25173;50.430;18.926;2022-09-17T02:36:15;11.00;;;6.50;;
39486;SDS011;25173;50.430;18.926;2022-09-17T02:39:16;16.25;;;9.18;;
39486;SDS011;25173;50.430;18.926;2022-09-17T02:52:33;16.60;;;11.40;;
39486;SDS011;25173;50.430;18.926;2022-09-17T02:59:28;13.23;;;9.57;;
39486;SDS011;25173;50.430;18.926;2022-09-17T03:02:38;14.60;;;8.95;;
39486;SDS011;25173;50.430;18.926;2022-09-17T03:05:46;11.73;;;7.82;;
39486;SDS011;25173;50.430;18.926;2022-09-17T03:08:50;12.55;;;7.40;;
39486;SDS011;25173;50.430;18.926;2022-09-17T03:11:51;12.35;;;8.02;;
39486;SDS011;25173;50.430;18.926;2022-09-17T03:14:52;12.00;;;7.60;;
39486;SDS011;25173;50.430;18.926;2022-09-17T03:17:52;10.90;;;7.60;;
39486;SDS011;25173;50.430;18.926;2022-09-17T03:20:53;10.80;;;7.47;;
39486;SDS011;25173;50.430;18.926;2022-09-17T03:23:54;9.52;;;6.30;;
39486;SDS011;25173;50.430;18.926;2022-09-17T03:26:54;10.65;;;7.07;;
39486;SDS011;25173;50.430;18.926;2022-09-17T03:29:55;13.10;;;6.95;;
39486;SDS011;25173;50.430;18.926;2022-09-17T03:32:55;8.55;;;6.57;;
39486;SDS011;25173;50.430;18.926;2022-09-17T03:35:56;8.98;;;6.57;;
39486;SDS011;25173;50.430;18.926;2022-09-17T03:38:57;8.38;;;6.00;;
39486;SDS011;25173;50.430;18.926;2022-09-17T03:41:58;8.50;;;6.57;;
39486;SDS011;25173;50.430;18.926;2022-09-17T03:44:58;7.95;;;6.43;;
39486;SDS011;25173;50.430;18.926;2022-09-17T03:47:59;8.43;;;6.35;;
39486;SDS011;25173;50.430;18.926;2022-09-17T03:51:00;9.77;;;6.57;;
39486;SDS011;25173;50.430;18.926;2022-09-17T03:54:00;7.93;;;5.80;;
39486;SDS011;25173;50.430;18.926;2022-09-17T03:57:02;6.93;;;6.10;;
39486;SDS011;25173;50.430;18.926;2022-09-17T04:00:03;9.68;;;7.82;;
39486;SDS011;25173;50.430;18.926;2022-09-17T04:03:11;8.98;;;6.00;;
39486;SDS011;25173;50.430;18.926;2022-09-17T04:06:12;12.88;;;6.03;;
39486;SDS011;25173;50.430;18.926;2022-09-17T04:09:13;19.70;;;6.95;;
39486;SDS011;25173;50.430;18.926;2022-09-17T04:12:13;7.95;;;6.57;;
39486;SDS011;25173;50.430;18.926;2022-09-17T04:15:14;8.35;;;6.80;;
39486;SDS011;25173;50.430;18.926;2022-09-17T04:18:14;14.63;;;9.48;;
39486;SDS011;25173;50.430;18.926;2022-09-17T04:21:15;17.13;;;7.80;;
39486;SDS011;25173;50.430;18.926;2022-09-17T04:24:16;10.98;;;7.65;;
39486;SDS011;25173;50.430;18.926;2022-09-17T04:27:16;11.75;;;7.35;;
39486;SDS011;25173;50.430;18.926;2022-09-17T04:30:17;18.48;;;10.45;;
39486;SDS011;25173;50.430;18.926;2022-09-17T04:33:18;20.25;;;13.07;;
39486;SDS011;25173;50.430;18.926;2022-09-17T04:36:19;13.48;;;10.25;;
39486;SDS011;25173;50.430;18.926;2022-09-17T04:39:19;11.90;;;9.35;;
39486;SDS011;25173;50.430;18.926;2022-09-17T04:42:20;13.75;;;9.27;;
39486;SDS011;25173;50.430;18.926;2022-09-17T04:45:21;13.80;;;9.93;;
39486;SDS011;25173;50.430;18.926;2022-09-17T04:48:22;12.93;;;8.98;;
39486;SDS011;25173;50.430;18.926;2022-09-17T04:51:22;10.55;;;7.78;;
39486;SDS011;25173;50.430;18.926;2022-09-17T04:54:23;10.05;;;5.93;;
39486;SDS011;25173;50.430;18.926;2022-09-17T04:57:24;8.73;;;6.65;;
39486;SDS011;25173;50.430;18.926;2022-09-17T05:00:25;8.50;;;6.07;;
39486;SDS011;25173;50.430;18.926;2022-09-17T05:03:26;14.93;;;7.97;;
39486;SDS011;25173;50.430;18.926;2022-09-17T05:06:26;19.02;;;9.65;;
39486;SDS011;25173;50.430;18.926;2022-09-17T05:09:27;16.25;;;8.32;;
39486;SDS011;25173;50.430;18.926;2022-09-17T05:12:27;9.63;;;7.07;;
39486;SDS011;25173;50.430;18.926;2022-09-17T05:15:28;11.13;;;8.48;;
39486;SDS011;25173;50.430;18.926;2022-09-17T05:18:28;9.10;;;6.85;;
39486;SDS011;25173;50.430;18.926;2022-09-17T05:21:29;11.82;;;6.55;;
39486;SDS011;25173;50.430;18.926;2022-09-17T05:24:30;7.13;;;5.82;;
39486;SDS011;25173;50.430;18.926;2022-09-17T05:27:30;7.85;;;6.93;;
39486;SDS011;25173;50.430;18.926;2022-09-17T05:30:31;7.55;;;6.63;;
39486;SDS011;25173;50.430;18.926;2022-09-17T05:33:32;12.43;;;8.40;;
39486;SDS011;25173;50.430;18.926;2022-09-17T05:36:33;10.43;;;8.73;;
39486;SDS011;25173;50.430;18.926;2022-09-17T05:39:33;12.10;;;9.35;;
39486;SDS011;25173;50.430;18.926;2022-09-17T05:42:34;10.32;;;8.50;;
39486;SDS011;25173;50.430;18.926;2022-09-17T05:45:34;14.35;;;10.13;;
39486;SDS011;25173;50.430;18.926;2022-09-17T05:48:36;14.43;;;8.85;;
39486;SDS011;25173;50.430;18.926;2022-09-17T05:51:37;12.55;;;9.52;;
39486;SDS011;25173;50.430;18.926;2022-09-17T05:54:37;11.80;;;8.90;;
39486;SDS011;25173;50.430;18.926;2022-09-17T05:57:38;11.10;;;7.97;;
39486;SDS011;25173;50.430;18.926;2022-09-17T06:00:39;9.00;;;6.97;;
39486;SDS011;25173;50.430;18.926;2022-09-17T06:03:41;8.52;;;7.18;;
39486;SDS011;25173;50.430;18.926;2022-09-17T06:07:04;11.57;;;6.70;;
39486;SDS011;25173;50.430;18.926;2022-09-17T06:10:26;8.63;;;7.00;;
39486;SDS011;25173;50.430;18.926;2022-09-17T06:13:45;12.23;;;6.78;;
39486;SDS011;25173;50.430;18.926;2022-09-17T06:17:05;6.85;;;5.35;;
39486;SDS011;25173;50.430;18.926;2022-09-17T06:20:24;5.68;;;5.07;;
39486;SDS011;25173;50.430;18.926;2022-09-17T06:23:43;5.50;;;4.72;;
39486;SDS011;25173;50.430;18.926;2022-09-17T06:27:03;9.90;;;4.85;;
39486;SDS011;25173;50.430;18.926;2022-09-17T06:30:22;5.22;;;4.72;;
39486;SDS011;25173;50.430;18.926;2022-09-17T06:33:41;5.97;;;4.88;;
39486;SDS011;25173;50.430;18.926;2022-09-17T06:37:01;6.53;;;5.57;;
39486;SDS011;25173;50.430;18.926;2022-09-17T06:40:20;5.97;;;4.80;;
39486;SDS011;25173;50.430;18.926;2022-09-17T06:43:41;5.32;;;4.38;;
39486;SDS011;25173;50.430;18.926;2022-09-17T06:47:00;7.28;;;4.88;;
39486;SDS011;25173;50.430;18.926;2022-09-17T06:50:19;11.63;;;6.32;;
39486;SDS011;25173;50.430;18.926;2022-09-17T06:53:38;19.48;;;8.48;;
39486;SDS011;25173;50.430;18.926;2022-09-17T06:56:59;15.18;;;7.40;;
39486;SDS011;25173;50.430;18.926;2022-09-17T07:00:18;10.55;;;6.10;;
39486;SDS011;25173;50.430;18.926;2022-09-17T07:03:38;8.13;;;4.80;;
39486;SDS011;25173;50.430;18.926;2022-09-17T07:07:00;5.90;;;5.30;;
39486;SDS011;25173;50.430;18.926;2022-09-17T07:10:20;10.32;;;4.90;;
39486;SDS011;25173;50.430;18.926;2022-09-17T07:13:41;4.40;;;3.80;;
39486;SDS011;25173;50.430;18.926;2022-09-17T07:17:00;5.68;;;4.30;;
39486;SDS011;25173;50.430;18.926;2022-09-17T07:20:19;7.35;;;4.15;;
39486;SDS011;25173;50.430;18.926;2022-09-17T07:23:39;11.52;;;4.50;;
39486;SDS011;25173;50.430;18.926;2022-09-17T07:26:59;9.18;;;3.90;;
39486;SDS011;25173;50.430;18.926;2022-09-17T07:30:19;7.43;;;3.97;;
39486;SDS011;25173;50.430;18.926;2022-09-17T07:33:43;7.07;;;3.60;;
39486;SDS011;25173;50.430;18.926;2022-09-17T07:37:02;5.32;;;3.20;;
39486;SDS011;25173;50.430;18.926;2022-09-17T07:40:22;5.10;;;3.17;;
39486;SDS011;25173;50.430;18.926;2022-09-17T07:43:41;4.95;;;2.67;;
39486;SDS011;25173;50.430;18.926;2022-09-17T07:47:01;5.45;;;3.17;;
39486;SDS011;25173;50.430;18.926;2022-09-17T07:50:21;3.42;;;3.05;;
39486;SDS011;25173;50.430;18.926;2022-09-17T07:53:40;5.40;;;2.80;;
39486;SDS011;25173;50.430;18.926;2022-09-17T07:56:59;5.90;;;3.10;;
39486;SDS011;25173;50.430;18.926;2022-09-17T08:00:19;4.32;;;2.75;;
39486;SDS011;25173;50.430;18.926;2022-09-17T08:03:38;4.57;;;2.92;;
39486;SDS011;25173;50.430;18.926;2022-09-17T08:06:57;6.82;;;2.92;;
39486;SDS011;25173;50.430;18.926;2022-09-17T08:10:17;7.07;;;3.13;;
39486;SDS011;25173;50.430;18.926;2022-09-17T08:13:40;4.40;;;3.25;;
39486;SDS011;25173;50.430;18.926;2022-09-17T08:17:00;5.47;;;3.30;;
39486;SDS011;25173;50.430;18.926;2022-09-17T08:20:20;13.40;;;9.93;;
39486;SDS011;25173;50.430;18.926;2022-09-17T08:23:40;8.95;;;4.30;;
39486;SDS011;25173;50.430;18.926;2022-09-17T08:27:00;6.55;;;5.03;;
39486;SDS011;25173;50.430;18.926;2022-09-17T08:30:19;22.52;;;11.55;;
39486;SDS011;25173;50.430;18.926;2022-09-17T08:33:43;6.53;;;2.22;;
39486;SDS011;25173;50.430;18.926;2022-09-17T08:37:03;4.80;;;3.40;;
39486;SDS011;25173;50.430;18.926;2022-09-17T08:40:28;3.70;;;2.75;;
39486;SDS011;25173;50.430;18.926;2022-09-17T08:47:48;6.97;;;4.05;;
39486;SDS011;25173;50.430;18.926;2022-09-17T09:06:54;5.93;;;3.20;;
39486;SDS011;25173;50.430;18.926;2022-09-17T09:10:27;5.32;;;3.08;;
39486;SDS011;25173;50.430;18.926;2022-09-17T09:13:58;3.35;;;3.00;;
39486;SDS011;25173;50.430;18.926;2022-09-17T09:17:25;10.27;;;4.25;;
39486;SDS011;25173;50.430;18.926;2022-09-17T09:24:44;6.57;;;3.95;;
39486;SDS011;25173;50.430;18.926;2022-09-17T09:28:41;10.13;;;4.57;;
39486;SDS011;25173;50.430;18.926;2022-09-17T09:32:37;10.18;;;5.18;;
39486;SDS011;25173;50.430;18.926;2022-09-17T09:36:13;12.32;;;3.80;;
39486;SDS011;25173;50.430;18.926;2022-09-17T09:39:41;6.90;;;3.83;;
39486;SDS011;25173;50.430;18.926;2022-09-17T09:43:14;4.88;;;3.25;;
39486;SDS011;25173;50.430;18.926;2022-09-17T09:54:12;4.72;;;3.72;;
39486;SDS011;25173;50.430;18.926;2022-09-17T09:57:52;7.28;;;3.65;;
39486;SDS011;25173;50.430;18.926;2022-09-17T10:01:24;4.70;;;3.40;;
39486;SDS011;25173;50.430;18.926;2022-09-17T10:04:53;6.53;;;3.78;;
39486;SDS011;25173;50.430;18.926;2022-09-17T10:08:19;15.02;;;5.20;;
39486;SDS011;25173;50.430;18.926;2022-09-17T10:11:57;12.13;;;7.43;;
39486;SDS011;25173;50.430;18.926;2022-09-17T10:15:46;10.57;;;6.47;;
39486;SDS011;25173;50.430;18.926;2022-09-17T10:19:12;5.43;;;4.03;;
39486;SDS011;25173;50.430;18.926;2022-09-17T10:22:45;6.35;;;3.25;;
39486;SDS011;25173;50.430;18.926;2022-09-17T10:26:19;5.00;;;3.30;;
39486;SDS011;25173;50.430;18.926;2022-09-17T10:33:33;5.18;;;3.17;;
39486;SDS011;25173;50.430;18.926;2022-09-17T10:37:33;17.67;;;14.27;;
39486;SDS011;25173;50.430;18.926;2022-09-17T10:41:10;9.20;;;4.65;;
39486;SDS011;25173;50.430;18.926;2022-09-17T10:44:37;6.32;;;2.60;;
39486;SDS011;25173;50.430;18.926;2022-09-17T10:48:15;3.47;;;2.85;;
39486;SDS011;25173;50.430;18.926;2022-09-17T10:51:45;6.30;;;2.65;;
39486;SDS011;25173;50.430;18.926;2022-09-17T10:59:19;7.60;;;6.95;;
39486;SDS011;25173;50.430;18.926;2022-09-17T11:06:34;7.55;;;3.22;;
39486;SDS011;25173;50.430;18.926;2022-09-17T11:18:34;4.97;;;3.50;;
39486;SDS011;25173;50.430;18.926;2022-09-17T11:22:40;5.28;;;3.15;;
39486;SDS011;25173;50.430;18.926;2022-09-17T11:30:09;9.45;;;3.30;;
39486;SDS011;25173;50.430;18.926;2022-09-17T11:37:25;10.97;;;5.43;;
39486;SDS011;25173;50.430;18.926;2022-09-17T11:41:07;11.95;;;8.82;;
39486;SDS011;25173;50.430;18.926;2022-09-17T11:44:40;8.50;;;4.25;;
39486;SDS011;25173;50.430;18.926;2022-09-17T11:55:04;5.85;;;3.15;;
39486;SDS011;25173;50.430;18.926;2022-09-17T11:58:57;8.35;;;4.65;;
39486;SDS011;25173;50.430;18.926;2022-09-17T12:05:43;9.60;;;5.18;;
39486;SDS011;25173;50.430;18.926;2022-09-17T12:09:18;6.03;;;3.85;;
39486;SDS011;25173;50.430;18.926;2022-09-17T12:12:43;12.27;;;6.78;;
39486;SDS011;25173;50.430;18.926;2022-09-17T12:16:15;14.70;;;7.20;;
39486;SDS011;25173;50.430;18.926;2022-09-17T12:20:17;8.02;;;4.70;;
39486;SDS011;25173;50.430;18.926;2022-09-17T12:23:38;6.15;;;4.20;;
39486;SDS011;25173;50.430;18.926;2022-09-17T12:30:54;6.10;;;3.58;;
39486;SDS011;25173;50.430;18.926;2022-09-17T12:34:27;6.97;;;4.03;;
39486;SDS011;25173;50.430;18.926;2022-09-17T12:42:03;4.45;;;2.63;;
39486;SDS011;25173;50.430;18.926;2022-09-17T12:46:11;6.72;;;2.70;;
39486;SDS011;25173;50.430;18.926;2022-09-17T12:49:35;4.88;;;3.22;;
39486;SDS011;25173;50.430;18.926;2022-09-17T13:00:11;6.65;;;2.88;;
39486;SDS011;25173;50.430;18.926;2022-09-17T13:03:32;6.43;;;3.03;;
39486;SDS011;25173;50.430;18.926;2022-09-17T13:24:32;4.20;;;2.30;;
39486;SDS011;25173;50.430;18.926;2022-09-17T13:28:08;3.83;;;3.42;;
39486;SDS011;25173;50.430;18.926;2022-09-17T13:31:45;8.45;;;4.70;;
39486;SDS011;25173;50.430;18.926;2022-09-17T13:34:54;8.80;;;5.65;;
39486;SDS011;25173;50.430;18.926;2022-09-17T13:38:12;6.00;;;3.50;;
39486;SDS011;25173;50.430;18.926;2022-09-17T13:41:25;3.90;;;2.90;;
39486;SDS011;25173;50.430;18.926;2022-09-17T13:44:46;7.50;;;4.07;;
39486;SDS011;25173;50.430;18.926;2022-09-17T13:48:07;4.75;;;3.45;;
39486;SDS011;25173;50.430;18.926;2022-09-17T13:54:42;7.22;;;4.30;;
39486;SDS011;25173;50.430;18.926;2022-09-17T13:57:54;5.35;;;3.58;;
39486;SDS011;25173;50.430;18.926;2022-09-17T14:01:15;11.23;;;7.97;;
39486;SDS011;25173;50.430;18.926;2022-09-17T14:05:31;12.60;;;6.75;;
39486;SDS011;25173;50.430;18.926;2022-09-17T14:15:58;69.43;;;40.35;;
39486;SDS011;25173;50.430;18.926;2022-09-17T14:22:35;29.45;;;15.50;;
39486;SDS011;25173;50.430;18.926;2022-09-17T14:25:52;13.63;;;5.80;;
39486;SDS011;25173;50.430;18.926;2022-09-17T14:29:15;19.52;;;10.07;;
39486;SDS011;25173;50.430;18.926;2022-09-17T14:36:15;4.47;;;3.45;;
39486;SDS011;25173;50.430;18.926;2022-09-17T14:39:35;96.10;;;42.10;;
39486;SDS011;25173;50.430;18.926;2022-09-17T14:42:55;52.55;;;29.67;;
39486;SDS011;25173;50.430;18.926;2022-09-17T14:46:17;118.00;;;51.65;;
39486;SDS011;25173;50.430;18.926;2022-09-17T14:49:35;58.40;;;29.60;;
39486;SDS011;25173;50.430;18.926;2022-09-17T14:52:54;84.00;;;36.85;;
39486;SDS011;25173;50.430;18.926;2022-09-17T14:56:18;28.10;;;14.55;;
39486;SDS011;25173;50.430;18.926;2022-09-17T14:59:48;13.50;;;8.52;;
39486;SDS011;25173;50.430;18.926;2022-09-17T15:03:05;11.73;;;7.05;;
39486;SDS011;25173;50.430;18.926;2022-09-17T15:06:22;10.90;;;5.57;;
39486;SDS011;25173;50.430;18.926;2022-09-17T15:09:35;10.95;;;6.30;;
39486;SDS011;25173;50.430;18.926;2022-09-17T15:12:52;17.08;;;8.57;;
39486;SDS011;25173;50.430;18.926;2022-09-17T15:16:05;51.15;;;22.63;;
39486;SDS011;25173;50.430;18.926;2022-09-17T15:19:45;46.08;;;21.08;;
39486;SDS011;25173;50.430;18.926;2022-09-17T15:23:23;13.15;;;6.18;;
39486;SDS011;25173;50.430;18.926;2022-09-17T15:26:45;10.68;;;7.00;;
39486;SDS011;25173;50.430;18.926;2022-09-17T15:33:22;28.58;;;12.73;;
39486;SDS011;25173;50.430;18.926;2022-09-17T15:36:35;42.80;;;17.90;;
39486;SDS011;25173;50.430;18.926;2022-09-17T15:39:52;49.58;;;21.77;;
39486;SDS011;25173;50.430;18.926;2022-09-17T15:46:42;71.30;;;29.20;;
39486;SDS011;25173;50.430;18.926;2022-09-17T15:53:35;21.95;;;11.32;;
39486;SDS011;25173;50.430;18.926;2022-09-17T15:56:56;62.05;;;33.22;;
39486;SDS011;25173;50.430;18.926;2022-09-17T16:00:15;15.50;;;9.68;;
39486;SDS011;25173;50.430;18.926;2022-09-17T16:10:16;37.63;;;17.63;;
39486;SDS011;25173;50.430;18.926;2022-09-17T16:13:32;95.70;;;37.70;;
39486;SDS011;25173;50.430;18.926;2022-09-17T16:16:46;68.78;;;25.52;;
39486;SDS011;25173;50.430;18.926;2022-09-17T16:20:06;109.63;;;37.72;;
39486;SDS011;25173;50.430;18.926;2022-09-17T16:23:25;108.63;;;36.85;;
39486;SDS011;25173;50.430;18.926;2022-09-17T16:26:42;21.27;;;12.35;;
39486;SDS011;25173;50.430;18.926;2022-09-17T16:30:06;15.95;;;10.82;;
39486;SDS011;25173;50.430;18.926;2022-09-17T16:33:26;29.02;;;15.27;;
39486;SDS011;25173;50.430;18.926;2022-09-17T16:36:42;24.20;;;14.02;;
39486;SDS011;25173;50.430;18.926;2022-09-17T16:39:56;13.40;;;10.02;;
39486;SDS011;25173;50.430;18.926;2022-09-17T16:46:32;130.70;;;53.38;;
39486;SDS011;25173;50.430;18.926;2022-09-17T16:49:45;23.77;;;15.10;;
39486;SDS011;25173;50.430;18.926;2022-09-17T16:53:02;22.92;;;13.90;;
39486;SDS011;25173;50.430;18.926;2022-09-17T16:56:22;17.73;;;12.98;;
39486;SDS011;25173;50.430;18.926;2022-09-17T16:59:42;20.17;;;15.38;;
39486;SDS011;25173;50.430;18.926;2022-09-17T17:06:42;27.52;;;19.98;;
39486;SDS011;25173;50.430;18.926;2022-09-17T17:10:03;47.45;;;24.23;;
39486;SDS011;25173;50.430;18.926;2022-09-17T17:13:16;130.15;;;45.00;;
39486;SDS011;25173;50.430;18.926;2022-09-17T17:16:32;112.95;;;42.42;;
39486;SDS011;25173;50.430;18.926;2022-09-17T17:19:52;39.08;;;21.23;;
39486;SDS011;25173;50.430;18.926;2022-09-17T17:23:05;148.52;;;56.58;;
39486;SDS011;25173;50.430;18.926;2022-09-17T17:26:22;107.18;;;41.17;;
39486;SDS011;25173;50.430;18.926;2022-09-17T17:29:37;43.05;;;22.40;;
39486;SDS011;25173;50.430;18.926;2022-09-17T17:32:57;18.67;;;11.90;;
39486;SDS011;25173;50.430;18.926;2022-09-17T17:36:17;12.95;;;10.18;;
39486;SDS011;25173;50.430;18.926;2022-09-17T17:39:37;13.75;;;9.25;;
39486;SDS011;25173;50.430;18.926;2022-09-17T17:42:52;9.82;;;6.65;;
39486;SDS011;25173;50.430;18.926;2022-09-17T17:46:12;18.80;;;11.45;;
39486;SDS011;25173;50.430;18.926;2022-09-17T17:49:35;14.00;;;11.32;;
39486;SDS011;25173;50.430;18.926;2022-09-17T17:52:55;15.65;;;11.63;;
39486;SDS011;25173;50.430;18.926;2022-09-17T17:56:15;14.68;;;9.18;;
39486;SDS011;25173;50.430;18.926;2022-09-17T17:59:32;17.02;;;9.50;;
39486;SDS011;25173;50.430;18.926;2022-09-17T18:02:45;18.92;;;10.82;;
39486;SDS011;25173;50.430;18.926;2022-09-17T18:06:03;19.08;;;9.38;;
39486;SDS011;25173;50.430;18.926;2022-09-17T18:09:25;22.08;;;10.40;;
39486;SDS011;25173;50.430;18.926;2022-09-17T18:12:45;12.30;;;7.65;;
39486;SDS011;25173;50.430;18.926;2022-09-17T18:16:05;17.25;;;8.73;;
39486;SDS011;25173;50.430;18.926;2022-09-17T18:19:25;16.67;;;9.00;;
39486;SDS011;25173;50.430;18.926;2022-09-17T18:22:45;18.55;;;8.98;;
39486;SDS011;25173;50.430;18.926;2022-09-17T18:26:03;17.42;;;9.55;;
39486;SDS011;25173;50.430;18.926;2022-09-17T18:29:25;15.40;;;9.80;;
39486;SDS011;25173;50.430;18.926;2022-09-17T18:32:42;17.38;;;10.82;;
39486;SDS011;25173;50.430;18.926;2022-09-17T18:36:05;32.72;;;15.77;;
39486;SDS011;25173;50.430;18.926;2022-09-17T18:39:22;28.70;;;14.05;;
39486;SDS011;25173;50.430;18.926;2022-09-17T18:42:38;38.67;;;19.30;;
39486;SDS011;25173;50.430;18.926;2022-09-17T18:45:56;36.45;;;15.57;;
39486;SDS011;25173;50.430;18.926;2022-09-17T18:49:12;18.08;;;11.38;;
39486;SDS011;25173;50.430;18.926;2022-09-17T18:52:32;10.50;;;7.22;;
39486;SDS011;25173;50.430;18.926;2022-09-17T18:55:53;12.95;;;6.53;;
39486;SDS011;25173;50.430;18.926;2022-09-17T18:59:15;33.72;;;15.80;;
39486;SDS011;25173;50.430;18.926;2022-09-17T19:02:35;16.70;;;9.68;;
39486;SDS011;25173;50.430;18.926;2022-09-17T19:05:57;24.60;;;12.40;;
39486;SDS011;25173;50.430;18.926;2022-09-17T19:09:12;42.35;;;19.63;;
39486;SDS011;25173;50.430;18.926;2022-09-17T19:12:32;30.00;;;16.27;;
39486;SDS011;25173;50.430;18.926;2022-09-17T19:15:48;47.88;;;21.50;;
39486;SDS011;25173;50.430;18.926;2022-09-17T19:19:08;42.85;;;23.10;;
39486;SDS011;25173;50.430;18.926;2022-09-17T19:22:28;39.35;;;20.85;;
39486;SDS011;25173;50.430;18.926;2022-09-17T19:25:43;45.17;;;24.65;;
39486;SDS011;25173;50.430;18.926;2022-09-17T19:28:56;11.52;;;9.52;;
39486;SDS011;25173;50.430;18.926;2022-09-17T19:32:15;19.23;;;10.07;;
39486;SDS011;25173;50.430;18.926;2022-09-17T19:35:32;12.45;;;8.80;;
39486;SDS011;25173;50.430;18.926;2022-09-17T19:38:47;5.22;;;3.15;;
39486;SDS011;25173;50.430;18.926;2022-09-17T19:42:02;7.65;;;5.80;;
39486;SDS011;25173;50.430;18.926;2022-09-17T19:45:15;9.57;;;6.13;;
39486;SDS011;25173;50.430;18.926;2022-09-17T19:48:36;6.55;;;5.00;;
39486;SDS011;25173;50.430;18.926;2022-09-17T19:51:55;5.72;;;3.85;;
39486;SDS011;25173;50.430;18.926;2022-09-17T19:55:15;6.13;;;4.47;;
39486;SDS011;25173;50.430;18.926;2022-09-17T19:58:35;5.25;;;3.65;;
39486;SDS011;25173;50.430;18.926;2022-09-17T20:01:55;7.28;;;3.85;;
39486;SDS011;25173;50.430;18.926;2022-09-17T20:05:15;6.60;;;2.67;;
39486;SDS011;25173;50.430;18.926;2022-09-17T20:08:32;6.47;;;3.00;;
39486;SDS011;25173;50.430;18.926;2022-09-17T20:11:45;4.32;;;2.60;;
39486;SDS011;25173;50.430;18.926;2022-09-17T20:15:03;6.35;;;3.53;;
39486;SDS011;25173;50.430;18.926;2022-09-17T20:18:15;6.13;;;3.13;;
39486;SDS011;25173;50.430;18.926;2022-09-17T20:21:33;8.93;;;3.53;;
39486;SDS011;25173;50.430;18.926;2022-09-17T20:24:53;5.13;;;2.88;;
39486;SDS011;25173;50.430;18.926;2022-09-17T20:28:13;4.40;;;2.83;;
39486;SDS011;25173;50.430;18.926;2022-09-17T20:31:33;3.30;;;2.47;;
39486;SDS011;25173;50.430;18.926;2022-09-17T20:34:53;4.88;;;2.65;;
39486;SDS011;25173;50.430;18.926;2022-09-17T20:38:06;5.25;;;2.92;;
39486;SDS011;25173;50.430;18.926;2022-09-17T20:41:23;3.75;;;2.38;;
39486;SDS011;25173;50.430;18.926;2022-09-17T20:44:43;4.93;;;2.35;;
39486;SDS011;25173;50.430;18.926;2022-09-17T20:47:55;4.95;;;2.47;;
39486;SDS011;25173;50.430;18.926;2022-09-17T20:51:16;3.40;;;2.33;;
39486;SDS011;25173;50.430;18.926;2022-09-17T20:54:33;6.95;;;2.40;;
39486;SDS011;25173;50.430;18.926;2022-09-17T20:57:45;4.65;;;1.95;;
39486;SDS011;25173;50.430;18.926;2022-09-17T21:01:06;4.55;;;1.73;;
39486;SDS011;25173;50.430;18.926;2022-09-17T21:04:25;2.95;;;1.63;;
39486;SDS011;25173;50.430;18.926;2022-09-17T21:07:43;4.93;;;2.10;;
39486;SDS011;25173;50.430;18.926;2022-09-17T21:11:03;3.45;;;1.85;;
39486;SDS011;25173;50.430;18.926;2022-09-17T21:14:17;8.13;;;2.28;;
39486;SDS011;25173;50.430;18.926;2022-09-17T21:17:33;4.83;;;2.07;;
39486;SDS011;25173;50.430;18.926;2022-09-17T21:20:53;3.85;;;2.33;;
39486;SDS011;25173;50.430;18.926;2022-09-17T21:24:13;6.05;;;2.90;;
39486;SDS011;25173;50.430;18.926;2022-09-17T21:27:33;8.05;;;3.00;;
39486;SDS011;25173;50.430;18.926;2022-09-17T21:30:46;6.28;;;2.50;;
39486;SDS011;25173;50.430;18.926;2022-09-17T21:34:08;7.85;;;2.90;;
39486;SDS011;25173;50.430;18.926;2022-09-17T21:37:26;6.97;;;2.20;;
39486;SDS011;25173;50.430;18.926;2022-09-17T21:40:56;5.50;;;2.40;;
39486;SDS011;25173;50.430;18.926;2022-09-17T21:44:16;10.45;;;2.72;;
39486;SDS011;25173;50.430;18.926;2022-09-17T21:47:33;7.60;;;2.40;;
39486;SDS011;25173;50.430;18.926;2022-09-17T21:50:45;11.93;;;2.97;;
39486;SDS011;25173;50.430;18.926;2022-09-17T21:54:08;5.43;;;2.38;;
39486;SDS011;25173;50.430;18.926;2022-09-17T21:57:26;8.95;;;2.35;;
39486;SDS011;25173;50.430;18.926;2022-09-17T22:00:46;5.75;;;2.58;;
39486;SDS011;25173;50.430;18.926;2022-09-17T22:04:03;6.28;;;2.83;;
39486;SDS011;25173;50.430;18.926;2022-09-17T22:07:15;6.93;;;2.53;;
39486;SDS011;25173;50.430;18.926;2022-09-17T22:10:35;9.13;;;3.28;;
39486;SDS011;25173;50.430;18.926;2022-09-17T22:13:52;6.50;;;2.83;;
39486;SDS011;25173;50.430;18.926;2022-09-17T22:17:18;3.80;;;2.65;;
39486;SDS011;25173;50.430;18.926;2022-09-17T22:20:38;6.32;;;2.65;;